You are here:
  • Home »
  • Tender »
  • Open Tender Enquiry

Open Tender Enquiry

4700-4601 4600-4501 4500-4401 4400-4301 4300-4201 4200-4101 4100-4001 4000-3901
3900-3801 3800-3701 3700-3601 3600-3501 3500-3401 3400-3301 3300-3201 3200-3101
3100-3001 3000-2901 2900-2801 2800-2701 2700-2601 2600-2501 2500-2401 2400-2301
2300-2201 2200-2101 2100-2001 2000-1901 1900-1801 1800-1701 1700-1601 1600-1501
1500-1401 1400-1301 1300-1201 1200-1101 1100-1001 1000-901 900-801 800-701
700-601 600-501 500-401 400-301 300-201 200-101 100-1 1300-1251
1250-1201 1200-1151 1150-1101 1100-1051 1050-1001 1000-951 950-901 900-851
850-801 800-751 750-701 700-651 650-601 600-551 550-501 500-451
450-401 400-351 350-301 300-251 250-201 200-151 150-101 100-51
50-01

Sl.No. Enquiry No. Date Due on Short Description
4501 2/PE180535/8 11/04/2018 17/05/2018 UMBRELLA
4502 2/PE180529/8 10/04/2018 17/05/2018 PRESSURE GAUGE
4503 2/PE180528/8 10/04/2018 17/05/2018 DIAPHRAGM VALVE
4504 2/PE180546/8 11/04/2018 17/05/2018 LEVEL INDICATOR ASSEMBLY
4505 2/PE180536/8 10/04/2018 17/05/2018 INNER HELMET BAND
4506 1/PE180193/1 18.05.2018 23.05.2018 Hand Held GPS
4507 1/PE180329/1 18.05.2018 23.05.2018 Starter
4508 1/PE180330/1 18.05.2018 23.05.2018 Capacitor
4509 1/PE180455/1 18.05.2018 23.05.2018 High Ignition Inductor
4510 1/PE180462/1 18.05.2018 23.05.2018 Iguition Kit
4511 1/PE180466/1 18.05.2018 23.05.2018 Element Adaptor
4512 1/PE180474/1 18.05.2018 23.05.2018 Drum Cortridge
4513 1/PE180479/1 18.05.2018 23.05.2018 Induction Motor
4514 1/PE180483/1 18.05.2018 23.05.2018 Laboratory Items
4515 3/PE180942/8 17/04/2018 17/05/2018 LUX METER
4516 3/ PE180935/8 17/04/2018 17/05/2018 PRESSURE SWITCH
4517 3/ PE180920/8 17/04/2018 17/05/2018 POLY PROPELENE ROPE
4518 3/ PE180262/7 17/04/2018 17/05/2018 DRAIN VALVE
4519 3/ PE180266/7 17/04/2018 17/05/2018 ELECTRONIC OVERLOAD RELAY
4520 3/ PE180267/7 17/04/2018 17/05/2018 CHECK & RESTRICTOR HIC
4521 3/ PE180910/8 17/04/2018 17/05/2018 VENT PLUG
4522 3/ PE180281/1 11/04/2018 14/05/2018 PLUMBER BLOCK
4523 3/ PE180260/7 16/04/2018 17/05/2018 RELAY
4524 3/ PE180912/8 16/04/2018 17/05/2018 STARTER ASSY.
4525 3/ PE180918/8 16/04/2018 17/05/2018 STOP WATCH
4526 3/ PE180616/8 16/04/2018 17/05/2018 HYDRAULIC MOTOR
4527 3/ PE180289/1 16/04/2018 17/05/2018 SPARES FOR JCB 3D
4528 3/ PE180921/8 17/04/2018 17/05/2018 LONG ADOPTER
4529 3/ PE180956/8 17/04/2018 17/05/2018 HDPE PIPE
4530 3/ PE180919/8 11/04/2018 14/05/2018 MOLYGRAPH SPRAY
4531 3/ PE180288/1 11/04/2018 14/05/2018 MOTOR CYCLE
4532 3/ PE180281/8 11/04/2018 14/05/2018 SPARES FOR ROCKET BOOMER 281
4533 3/ PE180264/7 11/04/2018 14/05/2018 G.I.PLAIN FLANGE
4534 3/ PE180858/8 11/04/2018 14/05/2018 PLASTIC PIPE
4535 3/ PE180237/1 11/04/2018 14/05/2018 G.I.FLANGE LONG NECK
4536 3/ PE180175/7 11/04/2018 14/05/2018 DRIVE LINE ASSY.
4537 3/ PE180926/8 11/04/2018 14/05/2018 HDPE PIPE
4538 3/ PE180618/8 11/04/2018 14/05/2018 COOLANT HOSE
4539 1- PE180465/1 28.03.2018 04.05.2018 Switch Ac Input & Selector Switch
4540 1- PE180501-1 02.04.2018 04.05.2018 6.6 KV Switch gear system (MRSS SWGR relays)
4541 1- PE180525-1 09.04.2018 11.05.2018 L&T make MN type Thermal Over load relay,
4542 1- PE180526-1- 09.04.2018 11.05.2018 ALAN make Annunciator,
4543 1- PE180533-1 18.04.2018 01.05.2018 Lifebuoy soaps
4544 2-PE180504-1 02.04.2018 04.05.2018 Ear thing Assemblies
4545 2-PE180535-1 20.04.2018 01.05.2018 Terminal Module For Level Transmitter
4546 2-PE 180326-1 CORRIGENDUM-1 10.04.2018 01.05.2018 ELGI Controller PLC/Temperature Sensor
4547 2-PE180143-1 CORRIGENDUM-III 06.04.2018 01.05.2018 GP Housing and camera lens
4548 2-PE180330-1 CORRIGENDUM-1 10.04.2018 10.05.2018 Touch Screen panel MMT VT-130 Make ESA
4549 2-PE180332-1 CORRIGENDUM-1 10.04.2018 01.05.2018 Direct acting solenoid valve
4550 2-PE180367- CORRIGENDUM-1 13.04.2018 01.05.2018 PA system call station
4551 2-PE180373-1 CORRIGENDUM-1 10.04.2018 01.05.2018 Make: PELCO CC TV Stands marine kit M/N:EM1512
4552 2-PE180374-1 CORRIGENDUM-1 12.04.2018 01.05.2018 Solenoid Coil
4553 TMPL-RC-V-belts-15 03.04.2018 01.05.2018 SKF/Fenner make v-V-Belts
4554 TMPL-RC-Welding Electrodes-14 04.04.2018 01.05.2018 Welding and gas cutting accessories
4555 TMPL-RC-KSB-03 Corrigendum-II 17.04.2018 04.05.2018 KSB Make Pumps
4556 2/PE180532/8 30/04/2018 15/05/2018 Solenoid Valve
4558 2/PE180218/7 16/04/2018 17/05/2018 SULPHOMIC ACID POWDER
4559 2/PE180185/7 16/04/2018 28/05/2018 STEAM GASKET
4560 2/PE180184/7 16/04/2018 28/05/2018 ASBESTOS PACKING GLAND
4561 2/PE180197/7 16/04/2018 28/05/2018 FOOT VALVE
4562 2/PE180601/8 16/04/2018 28/05/2018 LOW SPEED COUPLING
4563 2/PE180227/1 16/04/2018 28/05/2018 SOLENOID VALVE
4564 2/PE180226/1 16/04/2018 28/05/2018 SPARES FOR KDP PUMP
4565 2/PE180231/1 16/04/2018 28/05/2018 GEAR REDUCER
4566 2/PE180233/1 16/04/2018 28/05/2018 SPARE FOR MONITOR
4567 2/PE180613/8 16/04/2018 28/05/2018 DIGITAL PANEL METER
4568 2/PE180556/8 11/04/2018 28/05/2018 MUFFLE FURNACE
4569 2/PE180207/1 10/04/2018 28/05/2018 SPARES FOR KDP PUMP
4570 1/ PE180696/8 25.04.2018 30.05.2018 Choke
4571 1/ PE180978/8 25.04.2018 30.05.2018 Hardner
4572 1/ PE180980/8 25.04.2018 30.05.2018 Ceiling Fan
4573 1/ PE180982/8 25.04.2018 30.05.2018 Timer
4574 1/ PE180985/8 25.04.2018 30.05.2018 Welding Machine
4575 1/ PE180996/8 25.04.2018 30.05.2018 Net work Switch
4576 1/ PE180997/8 25.04.2018 30.05.2018 Colin Spray
4577 1/ PE180999/8 25.04.2018 30.05.2018 Relay
4578 1/ PE181001/8 25.04.2018 30.05.2018 Spring
4579 1/ PE181006/8 25.04.2018 30.05.2018 Earch Leakage Relay
4580 1/ PE180484/1 24.05.2018 29.05.2018 Holder
4581 1/ PE180486/1 24.05.2018 29.05.2018 Fan Capacitor
4582 1/ PE180491/1 24.05.2018 29.05.2018 Moving Contact
4583 1/ PE180493/1 24.05.2018 29.05.2018 Printing Items
4584 1/ PE180494/1 24.05.2018 29.05.2018 Hand Set Card
4585 1/ PE180495/1 24.05.2018 29.05.2018 Computer Stationery
4586 1/ PE180496/1 24.05.2018 29.05.2018 Hacksaw
4587 1/ PE180497/1 24.05.2018 29.05.2018 Welding Cable
4588 1/ PE180499/1 24.05.2018 29.05.2018 Log Book
4589 1/ PE180503/1 24.05.2018 29.05.2018 Cartridge
4590 1/ PE180252/7 23.04.2018 28.05.2018 Water Cooler
4591 1/ PE180253/7 23.04.2018 28.05.2018 Heating Element
4592 1/ PE180271/7 23.04.2018 28.05.2018 Nitrogen Gas
4593 1/ PE180272/7 23.04.2018 28.05.2018 Refregeration Gas R-22
4594 1/ PE180273/7 23.04.2018 28.05.2018 Chemical Earthing Pits
4595 1/ PE180274/7 23.04.2018 28.05.2018 Motors
4596 1/ PE180280/7 23.04.2018 28.05.2018 Welding Machine
4597 1/ PE180283/7 23.04.2018 28.05.2018 HRC Fuse
4598 1/ PE180284/7 23.04.2018 28.05.2018 Celing Fan
4599 1/ PE180285/7 23.04.2018 28.05.2018 MS Nut & Bolt
4600 1- PE180502-1 02.04.2018 04.05.2018 Transformer trouble relay